createdAt,value
2018-02-20T00:02:00.689Z,3.57
2018-02-20T00:04:31.154Z,4.70
2018-02-20T00:07:00.741Z,4.77
2018-02-20T00:09:30.843Z,4.40
2018-02-20T00:12:00.878Z,4.90
2018-02-20T00:14:30.550Z,4.40
2018-02-20T00:17:00.136Z,4.23
2018-02-20T00:19:29.781Z,4.50
2018-02-20T00:21:59.434Z,5.23
2018-02-20T00:24:29.001Z,4.50
2018-02-20T00:26:59.555Z,4.90
2018-02-20T00:29:29.153Z,3.97
2018-02-20T00:32:00.035Z,4.37
2018-02-20T00:34:29.616Z,5.03
2018-02-20T00:36:59.216Z,5.13
2018-02-20T00:39:39.583Z,4.63
2018-02-20T00:42:09.566Z,3.60
2018-02-20T00:44:39.323Z,4.43
2018-02-20T00:47:08.901Z,4.00
2018-02-20T00:49:38.576Z,4.90
2018-02-20T00:52:08.589Z,5.30
2018-02-20T00:54:38.461Z,4.00
2018-02-20T00:57:08.125Z,3.53
2018-02-20T00:59:37.698Z,3.73
2018-02-20T01:02:14.280Z,2.90
2018-02-20T01:04:43.921Z,3.23
2018-02-20T01:07:13.483Z,4.10
2018-02-20T01:09:43.020Z,3.97
2018-02-20T01:12:12.605Z,3.80
2018-02-20T01:14:42.652Z,4.73
2018-02-20T01:17:12.585Z,3.37
2018-02-20T01:19:42.205Z,3.20
2018-02-20T01:22:11.819Z,2.77
2018-02-20T01:24:41.423Z,2.53
2018-02-20T01:27:11.044Z,2.60
2018-02-20T01:29:40.927Z,3.07
2018-02-20T01:32:10.558Z,2.90
2018-02-20T01:34:40.166Z,2.20
2018-02-20T01:37:09.784Z,2.80
2018-02-20T01:39:54.070Z,2.70
2018-02-20T01:42:24.056Z,2.20
2018-02-20T01:44:53.738Z,2.53
2018-02-20T01:47:23.337Z,2.70
2018-02-20T01:49:53.944Z,2.93
2018-02-20T01:52:23.895Z,2.70
2018-02-20T01:54:53.474Z,2.30
2018-02-20T01:57:23.047Z,2.70
2018-02-20T01:59:52.650Z,2.00
2018-02-20T02:02:22.270Z,2.10
2018-02-20T02:04:52.119Z,2.73
2018-02-20T02:07:22.159Z,2.43
2018-02-20T02:09:51.717Z,2.20
2018-02-20T02:12:27.814Z,2.50
2018-02-20T02:14:59.304Z,2.30
2018-02-20T02:17:29.069Z,2.37
2018-02-20T02:19:59.172Z,2.10
2018-02-20T02:22:30.284Z,1.97
2018-02-20T02:25:00.145Z,2.27
2018-02-20T02:27:31.508Z,2.20
2018-02-20T02:30:01.136Z,2.73
2018-02-20T02:32:37.667Z,2.40
2018-02-20T02:35:09.177Z,2.10
2018-02-20T02:37:39.010Z,2.40
2018-02-20T02:40:08.736Z,1.80
2018-02-20T02:42:46.014Z,2.20
2018-02-20T02:45:18.776Z,2.40
2018-02-20T02:47:57.632Z,1.97
2018-02-20T02:50:27.741Z,1.83
2018-02-20T02:52:57.583Z,1.90
2018-02-20T02:55:27.183Z,1.80
2018-02-20T02:57:57.049Z,2.20
2018-02-20T03:00:26.631Z,2.00
2018-02-20T03:02:56.302Z,1.90
2018-02-20T03:05:25.946Z,1.93
2018-02-20T03:07:55.568Z,2.30
2018-02-20T03:10:25.916Z,2.23
2018-02-20T03:12:56.847Z,2.50
2018-02-20T03:15:26.522Z,2.40
2018-02-20T03:17:56.382Z,2.40
2018-02-20T03:20:26.488Z,2.40
2018-02-20T03:23:00.566Z,2.67
2018-02-20T03:25:30.155Z,3.50
2018-02-20T03:27:59.752Z,2.70
2018-02-20T03:30:29.358Z,3.03
2018-02-20T03:32:59.025Z,2.83
2018-02-20T03:35:29.499Z,2.53
2018-02-20T03:37:59.295Z,3.20
2018-02-20T03:40:30.008Z,3.20
2018-02-20T03:42:59.637Z,3.10
2018-02-20T03:45:29.242Z,3.10
2018-02-20T03:47:59.069Z,2.87
2018-02-20T03:50:29.337Z,3.37
2018-02-20T03:52:59.057Z,3.63
2018-02-20T03:55:28.689Z,3.87
2018-02-20T03:57:58.389Z,3.30
2018-02-20T04:00:27.969Z,4.20
2018-02-20T04:02:57.529Z,3.90
2018-02-20T04:05:27.099Z,3.97
2018-02-20T04:07:56.751Z,4.40
2018-02-20T04:10:26.513Z,4.50
2018-02-20T04:12:56.133Z,5.10
2018-02-20T04:15:34.598Z,4.53
2018-02-20T04:18:04.640Z,4.77
2018-02-20T04:20:40.744Z,4.80
2018-02-20T04:23:16.958Z,5.87
2018-02-20T04:25:47.110Z,5.73
2018-02-20T04:28:16.772Z,5.93
2018-02-20T04:30:46.363Z,6.57
2018-02-20T04:33:16.385Z,5.90
2018-02-20T04:35:46.003Z,5.90
2018-02-20T04:38:15.853Z,5.17
2018-02-20T04:40:45.388Z,5.57
2018-02-20T04:43:22.640Z,6.47
2018-02-20T04:45:52.253Z,6.57
2018-02-20T04:48:21.832Z,7.00
2018-02-20T04:50:52.273Z,7.00
2018-02-20T04:53:21.932Z,7.27
2018-02-20T04:55:51.750Z,7.07
2018-02-20T04:58:21.845Z,6.47
2018-02-20T05:00:51.474Z,7.63
2018-02-20T05:03:22.860Z,8.20
2018-02-20T05:05:52.892Z,8.00
2018-02-20T05:08:22.494Z,7.20
2018-02-20T05:10:52.085Z,7.20
2018-02-20T05:13:21.740Z,7.50
2018-02-20T05:15:51.582Z,7.63
2018-02-20T05:18:21.197Z,9.13
2018-02-20T05:20:50.767Z,8.03
2018-02-20T05:23:20.348Z,8.67
2018-02-20T05:25:49.917Z,8.20
2018-02-20T05:28:26.592Z,8.90
2018-02-20T05:30:57.056Z,8.20
2018-02-20T05:33:26.756Z,8.40
2018-02-20T05:35:56.320Z,7.90
2018-02-20T05:38:25.890Z,6.50
2018-02-20T05:40:58.637Z,8.37
2018-02-20T05:43:28.145Z,7.83
2018-02-20T05:46:04.246Z,8.47
2018-02-20T05:48:42.181Z,7.70
2018-02-20T05:51:11.752Z,6.90
2018-02-20T05:53:41.402Z,8.70
2018-02-20T05:56:10.946Z,8.33
2018-02-20T05:58:47.991Z,8.63
2018-02-20T06:01:17.523Z,7.80
2018-02-20T06:03:47.094Z,9.13
2018-02-20T06:06:22.636Z,7.13
2018-02-20T06:08:52.212Z,8.57
2018-02-20T06:11:22.440Z,7.53
2018-02-20T06:13:51.952Z,6.93
2018-02-20T06:16:21.515Z,7.00
2018-02-20T06:18:58.860Z,6.67
2018-02-20T06:21:28.435Z,7.70
2018-02-20T06:23:58.507Z,7.77
2018-02-20T06:26:36.402Z,9.60
2018-02-20T06:29:05.931Z,8.20
2018-02-20T06:31:37.000Z,8.03
2018-02-20T06:34:06.538Z,8.67
2018-02-20T06:36:49.221Z,6.60
2018-02-20T06:39:18.730Z,8.67
2018-02-20T06:41:48.234Z,8.23
2018-02-20T06:44:17.804Z,7.70
2018-02-20T06:46:47.373Z,8.40
2018-02-20T06:49:17.006Z,8.10
2018-02-20T06:51:46.569Z,7.77
2018-02-20T06:54:17.767Z,8.30
2018-02-20T06:56:47.323Z,7.23
2018-02-20T06:59:16.924Z,6.97
2018-02-20T07:01:46.456Z,6.70
2018-02-20T07:04:16.012Z,6.57
2018-02-20T07:06:45.534Z,6.93
2018-02-20T07:09:15.081Z,9.40
2018-02-20T07:11:44.718Z,7.83
2018-02-20T07:14:14.314Z,7.93
2018-02-20T07:16:45.068Z,7.13
2018-02-20T07:19:14.899Z,5.27
2018-02-20T07:21:44.409Z,6.00
2018-02-20T07:24:13.940Z,7.00
2018-02-20T07:26:43.519Z,6.60
2018-02-20T07:29:13.203Z,5.33
2018-02-20T07:31:42.757Z,5.43
2018-02-20T07:34:12.267Z,5.40
2018-02-20T07:36:41.824Z,5.90
2018-02-20T07:39:11.400Z,6.03
2018-02-20T07:41:40.947Z,6.00
2018-02-20T07:44:16.594Z,5.10
2018-02-20T07:46:46.178Z,4.70
2018-02-20T07:49:15.732Z,4.40
2018-02-20T07:51:45.271Z,4.97
2018-02-20T07:54:14.833Z,4.90
2018-02-20T07:56:50.459Z,5.53
2018-02-20T07:59:19.996Z,5.80
2018-02-20T08:01:49.503Z,5.30
2018-02-20T08:04:27.682Z,4.83
2018-02-20T08:06:57.602Z,5.07
2018-02-20T08:09:27.141Z,5.20
2018-02-20T08:11:56.670Z,4.50
2018-02-20T08:14:26.467Z,6.43
2018-02-20T08:16:56.122Z,5.30
2018-02-20T08:19:25.692Z,6.60
2018-02-20T08:21:55.476Z,4.70
2018-02-20T08:24:26.138Z,6.40
2018-02-20T08:26:55.736Z,5.47
2018-02-20T08:29:25.351Z,6.23
2018-02-20T08:31:58.090Z,5.63
2018-02-20T08:34:27.664Z,4.70
2018-02-20T08:36:57.207Z,7.50
2018-02-20T08:39:27.052Z,7.80
2018-02-20T08:41:56.587Z,8.63
2018-02-20T08:44:26.139Z,6.97
2018-02-20T08:46:55.686Z,7.93
2018-02-20T08:49:25.233Z,6.30
2018-02-20T08:51:55.063Z,6.40
2018-02-20T08:54:24.807Z,7.23
2018-02-20T08:56:55.320Z,7.43
2018-02-20T08:59:31.102Z,8.07
2018-02-20T09:02:00.639Z,7.57
2018-02-20T09:04:30.438Z,8.80
2018-02-20T09:07:00.912Z,7.30
2018-02-20T09:09:30.363Z,8.90
2018-02-20T09:12:00.077Z,8.50
2018-02-20T09:14:29.644Z,9.00
2018-02-20T09:16:59.250Z,8.67
2018-02-20T09:19:28.796Z,7.30
2018-02-20T09:22:01.466Z,7.87
2018-02-20T09:24:31.032Z,7.23
2018-02-20T09:27:00.646Z,8.50
2018-02-20T09:29:30.436Z,8.40
2018-02-20T09:31:59.955Z,6.80
2018-02-20T09:34:29.491Z,7.03
2018-02-20T09:37:05.006Z,7.93
2018-02-20T09:39:34.575Z,6.87
2018-02-20T09:42:04.181Z,7.13
2018-02-20T09:44:37.327Z,8.50
2018-02-20T09:47:06.900Z,9.27
2018-02-20T09:49:36.648Z,8.50
2018-02-20T09:52:12.529Z,7.80
2018-02-20T09:54:45.990Z,8.80
2018-02-20T09:57:15.587Z,9.03
2018-02-20T09:59:45.145Z,10.27
2018-02-20T10:02:14.662Z,10.60
2018-02-20T10:04:44.609Z,9.67
2018-02-20T10:07:14.207Z,11.03
2018-02-20T10:09:43.719Z,11.03
2018-02-20T10:12:13.246Z,10.30
2018-02-20T10:14:42.962Z,9.40
2018-02-20T10:17:12.539Z,9.97
2018-02-20T10:19:42.091Z,10.30
2018-02-20T10:22:11.640Z,10.23
2018-02-20T10:24:41.213Z,11.80
2018-02-20T10:27:10.759Z,10.40
2018-02-20T10:29:40.336Z,12.47
2018-02-20T10:32:09.949Z,11.80
2018-02-20T10:34:39.492Z,12.27
2018-02-20T10:37:09.051Z,13.00
2018-02-20T10:39:38.717Z,12.60
2018-02-20T10:42:08.970Z,13.03
2018-02-20T10:44:38.574Z,12.23
2018-02-20T10:47:08.188Z,12.63
2018-02-20T10:49:37.723Z,13.20
2018-02-20T10:52:08.155Z,11.87
2018-02-20T10:54:37.956Z,11.47
2018-02-20T10:57:09.962Z,12.13
2018-02-20T10:59:39.704Z,11.40
2018-02-20T11:02:16.280Z,11.00
2018-02-20T11:04:45.854Z,11.30
2018-02-20T11:07:15.412Z,9.77
2018-02-20T11:09:51.297Z,12.93
2018-02-20T11:12:20.894Z,11.63
2018-02-20T11:14:50.445Z,11.20
2018-02-20T11:17:19.998Z,9.70
2018-02-20T11:19:49.585Z,12.30
2018-02-20T11:22:19.162Z,10.00
2018-02-20T11:24:58.401Z,11.00
2018-02-20T11:27:27.964Z,12.13
2018-02-20T11:29:57.560Z,11.10
2018-02-20T11:32:27.243Z,11.70
2018-02-20T11:34:56.851Z,10.30
2018-02-20T11:37:26.402Z,10.27
2018-02-20T11:39:55.973Z,11.37
2018-02-20T11:42:25.732Z,10.83
2018-02-20T11:45:01.443Z,11.87
2018-02-20T11:47:30.994Z,11.77
2018-02-20T11:50:00.557Z,10.47
2018-02-20T11:52:30.111Z,11.23
2018-02-20T11:54:59.621Z,9.37
2018-02-20T11:57:29.136Z,10.20
2018-02-20T11:59:58.661Z,11.20
2018-02-20T12:02:34.270Z,8.70
2018-02-20T12:05:03.844Z,10.37
2018-02-20T12:07:33.692Z,10.20
2018-02-20T12:10:03.230Z,10.13
2018-02-20T12:12:33.016Z,9.33
2018-02-20T12:15:03.819Z,11.10
2018-02-20T12:17:33.988Z,9.13
2018-02-20T12:20:03.623Z,10.20
2018-02-20T12:22:33.192Z,10.73
2018-02-20T12:25:05.668Z,11.37
2018-02-20T12:27:35.196Z,11.57
2018-02-20T12:30:05.024Z,10.87
2018-02-20T12:32:37.559Z,10.77
2018-02-20T12:35:13.354Z,9.90
2018-02-20T12:37:42.940Z,9.33
2018-02-20T12:40:12.492Z,9.43
2018-02-20T12:42:42.076Z,9.50
2018-02-20T12:45:11.655Z,9.83
2018-02-20T12:47:41.223Z,9.80
2018-02-20T12:50:10.840Z,8.93
2018-02-20T12:52:48.165Z,9.70
2018-02-20T12:55:17.712Z,8.63
2018-02-20T12:57:47.525Z,9.13
2018-02-20T13:00:36.627Z,9.40
2018-02-20T13:03:06.210Z,10.60
2018-02-20T13:05:35.721Z,9.57
2018-02-20T13:08:05.240Z,7.23
2018-02-20T13:10:34.759Z,8.27
2018-02-20T13:13:04.344Z,9.13
2018-02-20T13:15:33.855Z,8.53
2018-02-20T13:18:03.970Z,8.10
2018-02-20T13:20:33.490Z,9.23
2018-02-20T13:23:03.091Z,9.20
2018-02-20T13:25:32.823Z,7.17
2018-02-20T19:01:17.870Z,10.47
2018-02-20T19:03:49.352Z,10.87
2018-02-20T19:06:19.388Z,10.97
2018-02-20T19:08:49.004Z,10.53
2018-02-20T19:11:26.578Z,11.80
2018-02-20T19:13:57.046Z,12.70
2018-02-20T19:16:38.994Z,12.00
2018-02-20T19:19:12.344Z,11.10
2018-02-20T19:21:42.032Z,11.40
2018-02-20T19:27:00.190Z,11.70
2018-02-20T19:32:18.365Z,10.77
2018-02-20T19:37:22.853Z,12.30
2018-02-20T19:39:54.077Z,10.60
2018-02-20T19:47:34.376Z,13.43
2018-02-20T19:50:04.815Z,14.30
2018-02-20T19:52:35.545Z,13.87
2018-02-20T19:55:07.118Z,13.60
2018-02-20T19:57:50.214Z,12.80
2018-02-20T20:00:34.783Z,15.53
2018-02-20T20:11:04.141Z,16.00
2018-02-20T20:16:09.797Z,14.63
2018-02-20T20:18:39.824Z,16.17
2018-02-20T20:21:11.631Z,16.10
2018-02-20T20:23:45.489Z,16.07
2018-02-20T20:29:11.492Z,16.30
2018-02-20T20:31:45.444Z,14.73
2018-02-20T20:34:16.096Z,15.23
2018-02-20T20:36:46.588Z,14.33
2018-02-20T20:39:16.522Z,15.37
2018-02-20T20:44:35.824Z,16.73
2018-02-20T20:47:09.305Z,16.37
2018-02-20T20:49:39.759Z,16.07
2018-02-20T20:52:26.646Z,15.20
2018-02-20T20:57:36.619Z,14.73
2018-02-20T21:00:06.505Z,14.23
2018-02-20T21:02:36.112Z,15.10
2018-02-20T21:05:10.735Z,15.23
2018-02-20T21:18:50.020Z,12.33
2018-02-20T21:21:19.892Z,13.20
2018-02-20T21:23:49.722Z,12.10
2018-02-20T21:26:19.384Z,11.23
2018-02-20T21:42:31.634Z,10.30
2018-02-20T21:45:01.771Z,14.80
2018-02-20T21:47:32.156Z,10.83
2018-02-20T21:50:02.026Z,10.07
2018-02-20T21:52:32.342Z,10.17
2018-02-20T21:55:09.613Z,10.07
2018-02-20T21:57:40.173Z,9.33
2018-02-20T22:00:09.770Z,10.17
2018-02-20T22:02:39.779Z,9.47
2018-02-20T22:05:09.819Z,8.37
2018-02-20T22:13:05.636Z,9.67
2018-02-20T22:15:37.301Z,9.40
2018-02-20T22:18:18.904Z,8.57
2018-02-20T22:20:55.514Z,9.70
2018-02-20T22:26:06.614Z,7.83
2018-02-20T22:28:43.773Z,9.30
2018-02-20T22:31:14.161Z,10.20
2018-02-20T22:33:44.435Z,8.60
2018-02-20T22:36:14.034Z,10.33
2018-02-20T22:41:41.057Z,9.93
2018-02-20T22:44:11.040Z,9.20
2018-02-20T22:46:54.627Z,8.83
2018-02-20T22:52:01.579Z,9.03
2018-02-20T22:54:32.746Z,9.90
2018-02-20T22:57:03.291Z,9.37
2018-02-20T22:59:33.230Z,10.33
2018-02-20T23:04:36.861Z,18.13
2018-02-20T23:07:06.712Z,13.67
2018-02-20T23:09:38.724Z,13.33
2018-02-20T23:12:12.936Z,14.60
2018-02-20T23:17:22.546Z,13.10
2018-02-20T23:20:05.776Z,13.93
2018-02-20T23:22:37.373Z,16.87
2018-02-20T23:25:11.566Z,15.17
2018-02-20T23:27:41.193Z,17.00
2018-02-20T23:30:11.234Z,17.17
2018-02-20T23:32:43.644Z,15.50
2018-02-20T23:38:08.192Z,14.37
2018-02-20T23:40:38.203Z,15.67
2018-02-20T23:43:08.364Z,18.30
2018-02-20T23:50:46.545Z,15.53
2018-02-20T23:53:29.880Z,15.90
2018-02-20T23:55:59.459Z,16.47
